createdAt,value
2023-04-15T00:01:02.648Z,6.72
2023-04-15T00:03:31.320Z,6.68
2023-04-15T00:05:59.984Z,7.10
2023-04-15T00:08:28.892Z,6.30
2023-04-15T00:11:02.700Z,7.10
2023-04-15T00:13:31.421Z,7.00
2023-04-15T00:15:59.869Z,6.90
2023-04-15T00:18:29.549Z,6.90
2023-04-15T00:20:57.972Z,6.32
2023-04-15T00:23:26.725Z,6.68
2023-04-15T00:25:55.202Z,6.35
2023-04-15T00:28:25.223Z,6.20
2023-04-15T00:30:53.678Z,7.30
2023-04-15T00:33:22.214Z,6.38
2023-04-15T00:35:50.934Z,6.93
2023-04-15T00:38:19.646Z,7.00
2023-04-15T00:40:48.198Z,6.38
2023-04-15T00:43:16.706Z,6.78
2023-04-15T00:45:47.216Z,7.72
2023-04-15T00:48:16.452Z,6.82
2023-04-15T00:50:44.871Z,7.28
2023-04-15T00:53:13.353Z,6.57
2023-04-15T00:55:41.992Z,6.50
2023-04-15T00:58:10.451Z,7.10
2023-04-15T01:00:39.220Z,6.95
2023-04-15T01:03:09.228Z,6.88
2023-04-15T01:05:38.605Z,6.65
2023-04-15T01:08:07.670Z,6.50
2023-04-15T01:10:36.090Z,6.78
2023-04-15T01:13:05.073Z,6.57
2023-04-15T01:15:33.511Z,7.10
2023-04-15T01:18:02.018Z,7.97
2023-04-15T01:20:32.378Z,6.60
2023-04-15T01:23:01.069Z,7.47
2023-04-15T01:25:33.341Z,7.28
2023-04-15T01:28:02.182Z,7.38
2023-04-15T01:30:30.726Z,7.93
2023-04-15T01:32:59.190Z,8.43
2023-04-15T01:35:27.849Z,8.45
2023-04-15T01:37:56.545Z,7.40
2023-04-15T01:40:25.015Z,7.80
2023-04-15T01:42:54.872Z,8.57
2023-04-15T01:45:23.316Z,8.90
2023-04-15T01:47:51.863Z,8.63
2023-04-15T01:50:20.435Z,8.70
2023-04-15T01:52:48.899Z,8.93
2023-04-15T01:55:17.330Z,8.85
2023-04-15T01:57:46.552Z,8.80
2023-04-15T02:00:17.556Z,8.48
2023-04-15T02:02:46.107Z,9.13
2023-04-15T02:05:14.610Z,9.13
2023-04-15T02:07:43.476Z,9.43
2023-04-15T02:10:13.464Z,8.70
2023-04-15T02:12:42.200Z,8.48
2023-04-15T02:15:11.256Z,8.82
2023-04-15T02:17:41.166Z,9.65
2023-04-15T02:20:10.606Z,8.40
2023-04-15T02:22:39.074Z,9.15
2023-04-15T02:25:08.290Z,9.50
2023-04-15T02:27:37.712Z,9.70
2023-04-15T02:30:07.302Z,8.98
2023-04-15T02:32:35.893Z,9.45
2023-04-15T02:35:06.838Z,9.20
2023-04-15T02:37:37.108Z,8.88
2023-04-15T02:40:05.732Z,10.10
2023-04-15T02:42:34.147Z,9.55
2023-04-15T02:45:02.630Z,10.63
2023-04-15T02:47:31.331Z,9.98
2023-04-15T02:50:00.966Z,9.73
2023-04-15T02:52:31.209Z,9.18
2023-04-15T02:55:00.855Z,10.10
2023-04-15T02:57:29.775Z,10.07
2023-04-15T02:59:58.203Z,10.77
2023-04-15T03:02:26.876Z,10.10
2023-04-15T03:04:56.568Z,10.60
2023-04-15T03:07:25.042Z,10.32
2023-04-15T03:09:55.313Z,10.18
2023-04-15T03:12:23.749Z,10.45
2023-04-15T03:14:52.321Z,11.00
2023-04-15T03:17:20.836Z,11.20
2023-04-15T03:19:49.303Z,10.88
2023-04-15T03:22:17.752Z,10.55
2023-04-15T03:24:46.183Z,10.77
2023-04-15T03:27:16.000Z,11.35
2023-04-15T03:29:44.724Z,10.55
2023-04-15T03:32:15.232Z,11.60
2023-04-15T03:34:44.000Z,11.60
2023-04-15T03:37:12.451Z,10.48
2023-04-15T03:39:40.856Z,12.02
2023-04-15T03:42:09.322Z,10.60
2023-04-15T03:44:39.103Z,10.75
2023-04-15T03:47:07.647Z,11.77
2023-04-15T03:49:36.083Z,10.75
2023-04-15T03:52:04.556Z,11.30
2023-04-15T03:54:32.992Z,12.63
2023-04-15T03:57:01.426Z,12.05
2023-04-15T03:59:29.920Z,11.85
2023-04-15T04:01:59.827Z,11.15
2023-04-15T04:04:28.354Z,12.20
2023-04-15T04:06:56.900Z,11.98
2023-04-15T04:09:25.840Z,11.93
2023-04-15T04:11:54.291Z,11.65
2023-04-15T04:14:29.212Z,11.73
2023-04-15T04:16:57.828Z,10.95
2023-04-15T04:19:27.625Z,12.60
2023-04-15T04:21:56.241Z,11.68
2023-04-15T04:24:24.674Z,11.75
2023-04-15T04:26:53.148Z,12.10
2023-04-15T04:29:21.837Z,12.40
2023-04-15T04:31:50.509Z,11.55
2023-04-15T04:34:18.924Z,12.15
2023-04-15T04:36:48.738Z,10.95
2023-04-15T04:39:17.151Z,11.38
2023-04-15T04:41:46.456Z,11.55
2023-04-15T04:44:14.934Z,10.93
2023-04-15T04:46:43.385Z,11.20
2023-04-15T04:49:11.805Z,11.15
2023-04-15T04:51:40.314Z,11.80
2023-04-15T04:54:10.144Z,11.07
2023-04-15T04:56:39.813Z,11.43
2023-04-15T04:59:08.269Z,11.55
2023-04-15T05:01:37.281Z,11.45
2023-04-15T05:04:07.150Z,12.10
2023-04-15T05:06:36.638Z,11.65
2023-04-15T05:09:05.214Z,12.15
2023-04-15T05:11:35.089Z,11.93
2023-04-15T05:14:03.820Z,11.48
2023-04-15T05:16:32.310Z,10.88
2023-04-15T05:19:00.954Z,10.95
2023-04-15T05:21:29.564Z,11.30
2023-04-15T05:23:57.973Z,12.45
2023-04-15T05:26:27.584Z,12.40
2023-04-15T05:28:57.492Z,11.70
2023-04-15T05:31:26.123Z,12.10
2023-04-15T05:33:54.665Z,12.52
2023-04-15T05:36:23.100Z,13.07
2023-04-15T05:38:51.553Z,12.38
2023-04-15T05:41:20.095Z,12.30
2023-04-15T05:43:48.543Z,12.57
2023-04-15T05:46:18.539Z,13.00
2023-04-15T05:48:47.039Z,12.98
2023-04-15T05:51:15.948Z,12.73
2023-04-15T05:53:45.968Z,12.60
2023-04-15T05:56:14.742Z,14.10
2023-04-15T05:58:43.169Z,12.57
2023-04-15T06:01:11.782Z,12.73
2023-04-15T06:03:41.763Z,13.38
2023-04-15T06:06:10.343Z,12.38
2023-04-15T06:08:38.750Z,12.57
2023-04-15T06:11:07.410Z,12.38
2023-04-15T06:13:36.035Z,11.73
2023-04-15T06:16:04.768Z,13.35
2023-04-15T06:18:33.257Z,12.80
2023-04-15T06:21:03.093Z,12.63
2023-04-15T06:23:31.715Z,12.93
2023-04-15T06:26:00.172Z,12.23
2023-04-15T06:28:28.725Z,12.02
2023-04-15T06:30:57.291Z,12.68
2023-04-15T06:33:25.778Z,12.82
2023-04-15T06:35:54.382Z,13.07
2023-04-15T06:38:24.170Z,13.18
2023-04-15T06:40:52.648Z,13.32
2023-04-15T06:43:21.498Z,13.52
2023-04-15T06:45:50.228Z,12.77
2023-04-15T06:48:18.797Z,13.15
2023-04-15T06:50:47.234Z,12.32
2023-04-15T06:53:15.947Z,12.88
2023-04-15T06:55:45.954Z,12.85
2023-04-15T06:58:14.380Z,14.25
2023-04-15T07:00:42.883Z,13.13
2023-04-15T07:03:12.861Z,13.25
2023-04-15T07:05:41.436Z,12.98
2023-04-15T07:08:09.874Z,12.85
2023-04-15T07:10:41.571Z,12.05
2023-04-15T07:13:11.396Z,12.50
2023-04-15T07:15:39.828Z,12.50
2023-04-15T07:18:08.244Z,11.70
2023-04-15T07:20:36.733Z,12.27
2023-04-15T07:23:05.199Z,10.27
2023-04-15T07:25:33.766Z,9.80
2023-04-15T07:28:02.552Z,9.50
2023-04-15T07:30:32.413Z,8.68
2023-04-15T07:33:01.251Z,8.10
2023-04-15T07:35:29.829Z,8.73
2023-04-15T07:37:58.262Z,9.30
2023-04-15T07:40:26.749Z,8.88
2023-04-15T07:42:55.394Z,7.35
2023-04-15T07:45:23.829Z,8.07
2023-04-15T07:47:53.833Z,7.82
2023-04-15T07:50:22.903Z,8.38
2023-04-15T07:52:52.222Z,7.53
2023-04-15T07:55:22.890Z,8.32
2023-04-15T07:57:51.699Z,8.82
2023-04-15T08:00:20.189Z,8.10
2023-04-15T08:02:50.027Z,8.13
2023-04-15T08:05:20.128Z,8.15
2023-04-15T08:07:48.618Z,7.43
2023-04-15T08:10:17.286Z,6.85
2023-04-15T08:12:49.058Z,6.75
2023-04-15T08:15:18.133Z,5.60
2023-04-15T08:17:46.578Z,5.57
2023-04-15T08:20:15.090Z,5.05
2023-04-15T08:22:44.914Z,4.95
2023-04-15T08:25:13.292Z,4.90
2023-04-15T08:27:41.951Z,4.50
2023-04-15T08:30:11.144Z,4.65
2023-04-15T08:32:39.662Z,4.47
2023-04-15T08:35:08.373Z,4.53
2023-04-15T08:37:36.742Z,4.40
2023-04-15T08:40:08.555Z,5.07
2023-04-15T08:42:39.148Z,4.70
2023-04-15T08:45:11.232Z,4.53
2023-04-15T08:47:40.815Z,4.38
2023-04-15T08:50:11.837Z,3.85
2023-04-15T08:52:40.766Z,3.67
2023-04-15T08:55:11.654Z,3.83
2023-04-15T08:57:40.142Z,3.55
2023-04-15T09:00:09.443Z,3.83
2023-04-15T09:02:38.206Z,3.65
2023-04-15T09:05:07.897Z,3.70
2023-04-15T09:07:36.905Z,3.65
2023-04-15T09:10:06.650Z,4.35
2023-04-15T09:12:37.944Z,3.88
2023-04-15T09:15:07.061Z,3.75
2023-04-15T09:17:35.721Z,4.03
2023-04-15T09:20:10.887Z,3.63
2023-04-15T09:22:39.432Z,4.53
2023-04-15T09:25:27.644Z,3.85
2023-04-15T09:27:58.464Z,4.22
2023-04-15T09:30:26.935Z,4.32
2023-04-15T09:32:56.561Z,3.83
2023-04-15T09:35:25.930Z,4.03
2023-04-15T09:37:54.668Z,4.10
2023-04-15T09:40:39.217Z,4.20
2023-04-15T09:43:10.028Z,3.90
2023-04-15T09:45:38.759Z,4.13
2023-04-15T09:48:18.092Z,4.30
2023-04-15T09:50:46.702Z,4.25
2023-04-15T09:53:19.152Z,3.85
2023-04-15T09:55:48.397Z,3.72
2023-04-15T09:58:21.484Z,3.90
2023-04-15T10:00:50.650Z,4.80
2023-04-15T10:03:21.949Z,4.43
2023-04-15T10:05:51.583Z,4.30
2023-04-15T10:08:20.717Z,4.10
2023-04-15T10:10:50.116Z,4.78
2023-04-15T10:13:19.460Z,4.85
2023-04-15T10:15:53.548Z,4.70
2023-04-15T10:18:22.659Z,4.65
2023-04-15T10:20:51.252Z,4.68
2023-04-15T10:23:20.775Z,4.45
2023-04-15T10:25:49.275Z,4.25
2023-04-15T10:28:18.293Z,4.93
2023-04-15T10:30:47.997Z,4.72
2023-04-15T10:33:20.081Z,4.40
2023-04-15T10:35:49.173Z,4.60
2023-04-15T10:38:36.892Z,5.05
2023-04-15T10:41:16.684Z,5.13
2023-04-15T10:43:53.176Z,4.40
2023-04-15T10:46:23.804Z,5.53
2023-04-15T10:48:54.615Z,5.00
2023-04-15T10:51:32.895Z,5.68
2023-04-15T10:54:02.228Z,4.88
2023-04-15T10:56:31.797Z,4.88
2023-04-15T10:59:01.999Z,5.50
2023-04-15T11:01:51.491Z,4.57
2023-04-15T11:04:34.924Z,4.80
2023-04-15T11:07:08.716Z,4.30
2023-04-15T11:09:37.614Z,4.38
2023-04-15T11:12:09.760Z,4.38
2023-04-15T11:14:43.300Z,4.72
2023-04-15T11:17:11.945Z,4.70
2023-04-15T11:19:40.932Z,4.10
2023-04-15T11:22:11.594Z,4.30
2023-04-15T11:24:50.593Z,4.68
2023-04-15T11:27:25.141Z,4.65
2023-04-15T11:29:53.808Z,4.53
2023-04-15T11:32:23.669Z,4.18
2023-04-15T11:34:53.965Z,3.90
2023-04-15T11:37:31.238Z,4.25
2023-04-15T11:40:01.899Z,4.32
2023-04-15T11:42:42.734Z,3.95
2023-04-15T11:45:17.626Z,4.35
2023-04-15T11:47:47.216Z,4.13
2023-04-15T11:50:17.001Z,3.70
2023-04-15T11:52:55.574Z,3.80
2023-04-15T11:55:25.010Z,4.03
2023-04-15T11:58:08.166Z,4.05
2023-04-15T12:00:36.948Z,4.13
2023-04-15T12:03:29.461Z,4.18
2023-04-15T12:06:20.359Z,3.30
2023-04-15T12:09:00.450Z,3.75
2023-04-15T12:11:32.987Z,3.53
2023-04-15T12:14:05.106Z,3.08
2023-04-15T12:16:37.097Z,3.90
2023-04-15T12:19:07.230Z,3.85
2023-04-15T12:21:36.516Z,3.53
2023-04-15T12:24:07.524Z,4.32
2023-04-15T12:26:37.123Z,4.32
2023-04-15T12:29:06.996Z,3.90
2023-04-15T12:31:35.786Z,3.63
2023-04-15T12:34:04.985Z,3.75
2023-04-15T12:36:37.182Z,3.33
2023-04-15T12:39:06.982Z,3.60
2023-04-15T12:41:35.445Z,3.25
2023-04-15T12:44:04.138Z,3.47
2023-04-15T12:46:32.873Z,3.97
2023-04-15T12:49:01.313Z,4.03
2023-04-15T12:51:29.750Z,3.45
2023-04-15T12:53:58.233Z,3.40
2023-04-15T12:56:28.075Z,3.47
2023-04-15T12:58:56.526Z,3.63
2023-04-15T13:01:24.994Z,3.35
2023-04-15T13:03:53.635Z,3.15
2023-04-15T13:06:22.558Z,3.20
2023-04-15T13:08:58.318Z,3.03
2023-04-15T13:11:30.870Z,3.50
2023-04-15T13:13:59.623Z,3.85
2023-04-15T13:16:28.481Z,3.97
2023-04-15T13:18:56.976Z,4.15
2023-04-15T13:21:25.407Z,4.10
2023-04-15T13:23:53.949Z,4.05
2023-04-15T13:26:22.951Z,3.50
2023-04-15T13:28:52.881Z,3.20
2023-04-15T13:31:21.451Z,3.45
2023-04-15T13:33:49.917Z,3.20
2023-04-15T13:36:18.481Z,3.00
2023-04-15T13:38:48.663Z,3.30
2023-04-15T13:41:20.072Z,2.97
2023-04-15T13:43:48.528Z,3.42
2023-04-15T13:46:18.394Z,3.80
2023-04-15T13:48:46.908Z,3.50
2023-04-15T13:51:17.241Z,3.35
2023-04-15T13:53:45.667Z,3.40
2023-04-15T13:56:14.854Z,3.17
2023-04-15T13:58:43.235Z,3.35
2023-04-15T14:01:11.809Z,3.13
2023-04-15T14:03:41.793Z,2.85
2023-04-15T14:06:10.589Z,3.60
2023-04-15T14:08:39.068Z,3.25
2023-04-15T14:11:08.408Z,3.58
2023-04-15T14:13:36.911Z,3.47
2023-04-15T14:16:05.499Z,3.65
2023-04-15T14:18:34.913Z,3.53
2023-04-15T14:21:04.887Z,2.95
2023-04-15T14:23:33.275Z,2.92
2023-04-15T14:26:01.789Z,3.03
2023-04-15T14:28:30.321Z,3.22
2023-04-15T14:30:58.788Z,3.35
2023-04-15T14:33:27.254Z,2.83
2023-04-15T14:35:55.793Z,2.47
2023-04-15T14:38:28.445Z,2.90
2023-04-15T14:41:06.582Z,2.67
2023-04-15T14:43:35.332Z,2.90
2023-04-15T14:46:04.072Z,2.70
2023-04-15T14:48:32.970Z,4.30
2023-04-15T14:51:01.400Z,3.15
2023-04-15T14:53:31.549Z,3.00
2023-04-15T14:55:59.995Z,3.10
2023-04-15T14:58:28.479Z,2.70
2023-04-15T15:00:56.943Z,2.83
2023-04-15T15:03:25.423Z,2.85
2023-04-15T15:05:54.123Z,3.05
2023-04-15T15:08:22.759Z,2.90
2023-04-15T15:10:52.579Z,3.22
2023-04-15T15:13:21.207Z,2.95
2023-04-15T15:15:50.227Z,2.92
2023-04-15T15:18:19.634Z,2.75
2023-04-15T15:20:48.585Z,2.67
2023-04-15T15:23:17.246Z,2.80
2023-04-15T15:25:46.048Z,3.20
2023-04-15T15:28:15.894Z,3.60
2023-04-15T15:30:44.360Z,3.78
2023-04-15T15:33:12.966Z,3.85
2023-04-15T15:35:41.508Z,3.60
2023-04-15T15:38:09.988Z,2.83
2023-04-15T15:40:38.401Z,3.20
2023-04-15T15:43:06.845Z,3.45
2023-04-15T15:45:36.688Z,3.17
2023-04-15T15:48:05.533Z,4.35
2023-04-15T15:50:34.124Z,4.47
2023-04-15T15:53:02.605Z,3.45
2023-04-15T15:55:31.291Z,3.67
2023-04-15T15:57:59.677Z,3.50
2023-04-15T16:00:28.169Z,3.67
2023-04-15T16:05:33.014Z,3.35
2023-04-15T16:08:01.881Z,3.63
2023-04-15T16:10:30.477Z,3.30
2023-04-15T16:12:58.954Z,3.53
2023-04-15T16:15:27.705Z,3.60
2023-04-15T16:17:56.292Z,3.30
2023-04-15T16:20:26.225Z,3.08
2023-04-15T16:22:54.696Z,3.47
2023-04-15T16:25:23.131Z,3.60
2023-04-15T16:28:01.316Z,3.50
2023-04-15T16:30:31.848Z,3.60
2023-04-15T16:33:00.530Z,3.97
2023-04-15T16:35:31.309Z,4.43
2023-04-15T16:38:00.852Z,4.07
2023-04-15T16:40:29.393Z,4.70
2023-04-15T16:42:57.856Z,4.63
2023-04-15T16:45:26.511Z,4.80
2023-04-15T16:47:54.969Z,4.68
2023-04-15T16:50:23.989Z,3.90
2023-04-15T16:52:54.077Z,4.22
2023-04-15T16:55:22.602Z,4.25
2023-04-15T16:58:03.334Z,3.75
2023-04-15T17:00:32.957Z,3.15
2023-04-15T17:03:02.245Z,3.47
2023-04-15T17:05:32.063Z,3.40
2023-04-15T17:08:01.903Z,3.20
2023-04-15T17:10:30.573Z,3.83
2023-04-15T17:12:59.232Z,4.38
2023-04-15T17:15:28.339Z,4.55
2023-04-15T17:17:59.346Z,4.50
2023-04-15T17:20:27.899Z,4.60
2023-04-15T17:25:22.742Z,4.88
2023-04-15T17:27:51.255Z,4.82
2023-04-15T17:30:19.807Z,4.60
2023-04-15T17:32:48.323Z,4.85
2023-04-15T17:35:16.896Z,4.43
2023-04-15T17:37:45.531Z,4.60
2023-04-15T17:40:14.912Z,4.05
2023-04-15T17:42:44.738Z,4.40
2023-04-15T17:45:13.466Z,3.53
2023-04-15T17:47:42.154Z,4.00
2023-04-15T17:50:11.039Z,3.92
2023-04-15T17:52:39.681Z,3.55
2023-04-15T17:55:08.784Z,4.13
2023-04-15T17:57:37.410Z,4.90
2023-04-15T18:00:08.876Z,4.20
2023-04-15T18:02:37.760Z,4.32
2023-04-15T18:05:06.871Z,4.72
2023-04-15T18:07:35.377Z,4.78
2023-04-15T18:10:03.812Z,4.85
2023-04-15T18:12:32.392Z,3.97
2023-04-15T18:15:00.997Z,4.28
2023-04-15T18:17:31.024Z,4.22
2023-04-15T18:19:59.594Z,4.43
2023-04-15T18:22:28.236Z,4.80
2023-04-15T18:24:58.960Z,4.78
2023-04-15T18:27:27.477Z,3.90
2023-04-15T18:29:56.134Z,4.50
2023-04-15T18:32:24.731Z,5.07
2023-04-15T18:34:55.623Z,5.85
2023-04-15T18:37:24.472Z,4.90
2023-04-15T18:39:54.191Z,5.80
2023-04-15T18:42:22.885Z,4.13
2023-04-15T18:44:51.603Z,5.05
2023-04-15T18:47:20.283Z,6.10
2023-04-15T18:49:48.724Z,5.78
2023-04-15T18:52:18.801Z,5.38
2023-04-15T18:54:47.402Z,5.70
2023-04-15T18:57:23.539Z,4.53
2023-04-15T18:59:57.833Z,5.38
2023-04-15T19:02:26.622Z,5.88
2023-04-15T19:04:55.291Z,4.32
2023-04-15T19:07:25.203Z,5.07
2023-04-15T19:09:53.629Z,4.78
2023-04-15T19:12:22.101Z,4.93
2023-04-15T19:14:50.525Z,6.57
2023-04-15T19:17:19.070Z,5.95
2023-04-15T19:19:47.514Z,5.90
2023-04-15T19:22:15.992Z,4.75
2023-04-15T19:24:45.958Z,4.72
2023-04-15T19:27:14.471Z,4.93
2023-04-15T19:29:42.919Z,5.53
2023-04-15T19:32:11.386Z,6.32
2023-04-15T19:34:39.793Z,6.65
2023-04-15T19:37:08.459Z,8.65
2023-04-15T19:39:37.038Z,6.28
2023-04-15T19:42:07.043Z,5.43
2023-04-15T19:44:37.258Z,6.40
2023-04-15T19:47:05.845Z,6.63
2023-04-15T19:49:34.436Z,8.13
2023-04-15T19:52:02.956Z,7.30
2023-04-15T19:54:32.336Z,6.20
2023-04-15T19:57:01.611Z,6.05
2023-04-15T19:59:31.514Z,6.80
2023-04-15T20:02:00.207Z,7.35
2023-04-15T20:04:28.996Z,8.48
2023-04-15T20:06:57.774Z,6.82
2023-04-15T20:09:26.303Z,7.82
2023-04-15T20:12:46.928Z,6.03
2023-04-15T20:14:44.700Z,6.93
2023-04-15T20:17:13.240Z,6.20
2023-04-15T20:19:41.661Z,6.70
2023-04-15T20:22:10.109Z,11.82
2023-04-15T20:24:38.570Z,11.00
2023-04-15T20:27:07.095Z,10.43
2023-04-15T20:29:36.299Z,11.25
2023-04-15T20:32:06.833Z,11.60
2023-04-15T20:34:35.666Z,10.25
2023-04-15T20:37:04.149Z,11.38
2023-04-15T20:39:32.757Z,11.60
2023-04-15T20:42:01.409Z,12.02
2023-04-15T20:44:31.435Z,13.25
2023-04-15T20:47:00.250Z,10.55
2023-04-15T20:49:30.350Z,10.77
2023-04-15T20:51:58.913Z,8.45
2023-04-15T20:54:27.546Z,7.78
2023-04-15T20:56:56.418Z,8.63
2023-04-15T20:59:25.066Z,9.70
2023-04-15T21:01:53.890Z,9.13
2023-04-15T21:04:22.544Z,11.13
2023-04-15T21:06:52.593Z,12.27
2023-04-15T21:09:21.373Z,11.73
2023-04-15T21:14:21.927Z,18.30
2023-04-15T21:16:50.466Z,16.88
2023-04-15T21:19:19.016Z,17.30
2023-04-15T21:21:47.458Z,17.58
2023-04-15T21:24:17.344Z,16.70
2023-04-15T21:26:46.001Z,17.02
2023-04-15T21:29:14.800Z,19.58
2023-04-15T21:31:43.600Z,22.35
2023-04-15T21:34:12.597Z,21.55
2023-04-15T21:36:41.124Z,22.48
2023-04-15T21:39:09.661Z,22.98
2023-04-15T21:41:39.672Z,20.60
2023-04-15T21:44:08.239Z,17.92
2023-04-15T21:46:36.760Z,17.42
2023-04-15T21:49:07.086Z,17.13
2023-04-15T21:51:35.795Z,14.02
2023-04-15T21:54:04.469Z,13.43
2023-04-15T21:56:32.930Z,12.57
2023-04-15T21:59:03.163Z,14.15
2023-04-15T22:01:31.818Z,15.45
2023-04-15T22:04:00.532Z,15.82
2023-04-15T22:06:29.159Z,13.90
2023-04-15T22:08:58.053Z,13.85
2023-04-15T22:11:28.404Z,14.50
2023-04-15T22:13:57.802Z,15.23
2023-04-15T22:16:28.440Z,12.73
2023-04-15T22:18:57.215Z,11.25
2023-04-15T22:21:26.653Z,13.85
2023-04-15T22:24:32.880Z,15.25
2023-04-15T22:26:43.678Z,15.52
2023-04-15T22:29:12.116Z,14.50
2023-04-15T22:31:41.971Z,13.32
2023-04-15T22:34:10.582Z,14.20
2023-04-15T22:36:38.938Z,12.25
2023-04-15T22:39:07.676Z,13.25
2023-04-15T22:41:36.237Z,15.95
2023-04-15T22:44:04.688Z,15.60
2023-04-15T22:46:33.189Z,17.27
2023-04-15T22:49:03.207Z,16.58
2023-04-15T22:51:32.834Z,16.27
2023-04-15T22:54:01.546Z,17.08
2023-04-15T22:56:30.158Z,18.85
2023-04-15T22:58:58.845Z,21.48
2023-04-15T23:01:27.822Z,21.48
2023-04-15T23:04:05.162Z,22.20
2023-04-15T23:06:39.584Z,21.90
2023-04-15T23:09:08.280Z,20.52
2023-04-15T23:11:36.809Z,20.17
2023-04-15T23:14:05.485Z,18.35
2023-04-15T23:16:34.051Z,18.30
2023-04-15T23:19:02.518Z,17.35
2023-04-15T23:21:31.449Z,16.50
2023-04-15T23:24:01.316Z,16.00
2023-04-15T23:26:29.718Z,15.93
2023-04-15T23:28:58.130Z,17.58
2023-04-15T23:31:26.513Z,17.85
2023-04-15T23:33:54.968Z,20.17
2023-04-15T23:36:23.428Z,20.25
2023-04-15T23:38:51.898Z,21.85
2023-04-15T23:41:21.729Z,22.10
2023-04-15T23:43:50.299Z,19.55
2023-04-15T23:46:18.734Z,19.05
2023-04-15T23:48:47.874Z,21.08
2023-04-15T23:51:16.514Z,24.42
2023-04-15T23:53:44.985Z,22.90
2023-04-15T23:56:13.835Z,20.40
2023-04-15T23:58:43.664Z,19.75
